Time;durP1;ratioP1;P1;durP2;ratioP2;P2;SDS_P1;SDS_P2;PMS_P1;PMS_P2;Temp;Humidity;BMP_temperature;BMP_pressure;BME280_temperature;BME280_humidity;BME280_pressure;Samples;Min_cycle;Max_cycle;Signal;HPM_P1;HPM_P2
2023/08/30 00:01:08;;;;;;;;;;;10.70;99.90;;;;;;5033212;28;20386;-60
2023/08/30 00:03:49;;;;;;;4.65;3.25;;;10.70;99.90;;;;;;5027335;28;20424;-61
2023/08/30 00:06:29;;;;;;;7.25;3.03;;;10.70;99.90;;;;;;5032731;28;20049;-60
2023/08/30 00:08:56;;;;;;;;;;;10.70;99.90;;;;;;5027800;28;20030;-61
2023/08/30 00:11:22;;;;;;;8.38;3.78;;;10.80;99.90;;;;;;5027030;28;19939;-60
2023/08/30 00:13:47;;;;;;;;;;;10.80;99.90;;;;;;5035411;28;20449;-59
2023/08/30 00:16:16;;;;;;;6.97;3.72;;;10.90;99.90;;;;;;5023803;28;19947;-59
2023/08/30 00:18:42;;;;;;;8.15;3.30;;;10.90;99.90;;;;;;5025797;28;20029;-60
2023/08/30 00:21:08;;;;;;;;;;;10.90;99.90;;;;;;5024633;28;20440;-60
2023/08/30 00:23:33;;;;;;;6.07;3.78;;;10.90;99.90;;;;;;5015705;28;19913;-61
2023/08/30 00:25:59;;;;;;;;;;;10.90;99.90;;;;;;5018961;28;20793;-58
2023/08/30 00:28:25;;;;;;;4.32;2.92;;;11.00;99.90;;;;;;5022581;28;19913;-61
2023/08/30 00:30:54;;;;;;;;;;;10.90;99.90;;;;;;5010179;28;20116;-61
2023/08/30 00:33:20;;;;;;;4.63;2.75;;;10.90;99.90;;;;;;5006598;28;19929;-62
2023/08/30 00:35:46;;;;;;;;;;;10.80;99.90;;;;;;5012869;28;20471;-61
2023/08/30 00:38:11;;;;;;;6.10;3.53;;;10.90;99.90;;;;;;5017411;28;19961;-62
2023/08/30 00:40:40;;;;;;;7.38;3.88;;;10.80;99.90;;;;;;5024043;28;20653;-62
2023/08/30 00:43:07;;;;;;;8.15;4.88;;;10.80;99.90;;;;;;5021300;28;20452;-61
2023/08/30 00:45:34;;;;;;;7.90;5.13;;;10.90;99.90;;;;;;5017157;28;21288;-60
2023/08/30 00:48:00;;;;;;;11.23;5.15;;;11.00;99.90;;;;;;5011962;28;20159;-61
2023/08/30 00:50:25;;;;;;;;;;;11.10;99.90;;;;;;5020550;28;20884;-61
2023/08/30 00:52:51;;;;;;;7.03;5.00;;;11.10;99.90;;;;;;5013850;28;19916;-60
2023/08/30 00:55:17;;;;;;;;;;;11.10;99.90;;;;;;5023718;28;20395;-58
2023/08/30 00:57:42;;;;;;;13.27;5.43;;;11.20;99.90;;;;;;5022981;28;20019;-60
2023/08/30 01:00:10;;;;;;;14.68;5.53;;;11.20;99.90;;;;;;5018945;28;20045;-59
2023/08/30 01:02:36;;;;;;;9.52;5.30;;;11.20;99.90;;;;;;5022878;28;20417;-60
2023/08/30 01:05:03;;;;;;;9.80;5.65;;;11.20;99.90;;;;;;5022742;28;20531;-62
2023/08/30 01:07:29;;;;;;;7.15;4.75;;;11.30;99.90;;;;;;5023806;28;20049;-61
2023/08/30 01:10:22;;;;;;;;;;;11.30;99.90;;;;;;5017174;28;20087;-61
2023/08/30 01:12:51;;;;;;;8.05;4.60;;;11.40;99.90;;;;;;5007943;28;20031;-61
2023/08/30 01:15:22;;;;;;;13.27;4.70;;;11.50;99.90;;;;;;5021393;28;20033;-61
2023/08/30 01:17:51;;;;;;;14.90;5.10;;;11.50;99.90;;;;;;5023549;28;20574;-60
2023/08/30 01:20:20;;;;;;;8.60;5.55;;;11.50;99.90;;;;;;5016940;28;20060;-61
2023/08/30 01:23:06;;;;;;;13.15;6.20;;;11.60;99.90;;;;;;5006922;28;20041;-61
2023/08/30 01:25:47;;;;;;;8.38;5.70;;;11.60;99.90;;;;;;5018447;28;20129;-61
2023/08/30 01:28:16;;;;;;;8.30;4.93;;;11.60;99.90;;;;;;5013143;28;20525;-61
2023/08/30 01:30:43;;;;;;;12.23;5.20;;;11.60;99.90;;;;;;5018154;28;20115;-61
2023/08/30 01:33:09;;;;;;;9.05;5.43;;;11.70;99.90;;;;;;5020228;28;20038;-62
2023/08/30 01:35:37;;;;;;;9.20;5.43;;;11.70;99.90;;;;;;5013295;28;20460;-61
2023/08/30 01:38:06;;;;;;;8.18;5.10;;;11.70;99.90;;;;;;5021606;28;20068;-62
2023/08/30 01:40:36;;;;;;;13.30;6.18;;;11.70;99.90;;;;;;5020299;28;20041;-61
2023/08/30 01:43:05;;;;;;;15.98;6.15;;;11.70;99.90;;;;;;5023152;28;20045;-60
2023/08/30 01:45:34;;;;;;;8.60;5.85;;;11.70;99.90;;;;;;5016092;28;20049;-62
2023/08/30 01:48:00;;;;;;;9.90;5.20;;;11.80;99.90;;;;;;5014107;28;20508;-60
2023/08/30 01:50:26;;;;;;;;;;;11.80;99.90;;;;;;5018241;28;20069;-61
2023/08/30 01:52:52;;;;;;;9.55;5.18;;;11.80;99.90;;;;;;5020191;28;20512;-61
2023/08/30 01:55:20;;;;;;;;;;;11.90;99.90;;;;;;5023770;28;20033;-61
2023/08/30 01:57:45;;;;;;;9.02;4.90;;;11.80;99.90;;;;;;5007386;28;19917;-60
2023/08/30 02:00:11;;;;;;;;;;;11.90;99.90;;;;;;5009313;28;20037;-60
2023/08/30 02:02:37;;;;;;;12.63;4.70;;;11.80;99.90;;;;;;5007261;28;19921;-60
2023/08/30 02:05:03;;;;;;;;;;;11.90;99.90;;;;;;5021008;28;20041;-61
2023/08/30 02:07:50;;;;;;;8.95;4.25;;;11.90;99.90;;;;;;5015539;28;19925;-61
2023/08/30 02:10:22;;;;;;;7.32;3.80;;;11.90;99.90;;;;;;5021969;28;20120;-61
2023/08/30 02:12:52;;;;;;;6.50;3.42;;;11.90;99.90;;;;;;5014155;28;20113;-61
2023/08/30 02:15:19;;;;;;;7.57;4.10;;;11.90;99.90;;;;;;5009501;28;20040;-62
2023/08/30 02:17:46;;;;;;;13.63;4.70;;;11.90;99.90;;;;;;5014353;28;20519;-61
2023/08/30 02:20:11;;;;;;;6.75;4.47;;;11.90;99.90;;;;;;5019345;28;20133;-62
2023/08/30 02:22:37;;;;;;;;;;;12.00;99.90;;;;;;5015878;28;20136;-61
2023/08/30 02:25:06;;;;;;;8.35;4.60;;;12.00;99.90;;;;;;5019689;28;19924;-61
2023/08/30 02:27:32;;;;;;;8.60;3.60;;;12.00;99.90;;;;;;5023766;28;20045;-61
2023/08/30 02:29:58;;;;;;;5.93;4.25;;;12.00;99.90;;;;;;5017988;28;20127;-61
2023/08/30 02:32:23;;;;;;;;;;;11.90;99.90;;;;;;5013790;28;20093;-59
2023/08/30 02:34:52;;;;;;;7.00;3.65;;;11.90;99.90;;;;;;5011292;28;19917;-61
2023/08/30 02:37:18;;;;;;;5.60;3.90;;;11.90;99.90;;;;;;5011827;28;20516;-58
2023/08/30 02:39:44;;;;;;;9.98;4.07;;;11.80;99.90;;;;;;5009180;28;20045;-60
2023/08/30 02:42:10;;;;;;;;;;;11.90;99.90;;;;;;5021323;28;20671;-60
2023/08/30 02:44:35;;;;;;;12.40;5.55;;;11.90;99.90;;;;;;5011874;28;20723;-61
2023/08/30 02:47:01;;;;;;;;;;;12.00;99.90;;;;;;5011597;28;20428;-62
2023/08/30 02:49:26;;;;;;;11.25;5.82;;;12.00;99.90;;;;;;5019869;28;20058;-62
2023/08/30 02:51:52;;;;;;;11.60;4.90;;;12.00;99.90;;;;;;5021514;28;20044;-61
2023/08/30 02:54:17;;;;;;;;;;;12.10;99.90;;;;;;5025002;28;20056;-61
2023/08/30 02:56:44;;;;;;;12.25;7.05;;;12.10;99.90;;;;;;5022580;28;19924;-62
2023/08/30 02:59:10;;;;;;;12.63;7.78;;;12.10;99.90;;;;;;5015944;28;20704;-62
2023/08/30 03:01:36;;;;;;;;;;;12.10;99.90;;;;;;5016083;28;20124;-62
2023/08/30 03:04:03;;;;;;;6.28;4.53;;;12.00;99.90;;;;;;5018268;28;19917;-62
2023/08/30 03:06:28;;;;;;;5.95;4.95;;;12.00;99.90;;;;;;5015442;28;20420;-62
2023/08/30 03:08:54;;;;;;;;;;;12.00;99.90;;;;;;5019701;28;20044;-62
2023/08/30 03:11:20;;;;;;;10.07;5.03;;;12.00;99.90;;;;;;5014242;28;19920;-62
2023/08/30 03:13:45;;;;;;;;;;;12.00;99.90;;;;;;5009439;28;20037;-61
2023/08/30 03:16:15;;;;;;;8.30;5.20;;;12.00;99.90;;;;;;5016024;28;19929;-61
2023/08/30 03:18:41;;;;;;;10.30;5.57;;;12.10;99.90;;;;;;5017954;28;20033;-62
2023/08/30 03:21:08;;;;;;;12.27;5.50;;;12.20;99.90;;;;;;5004306;28;20042;-61
2023/08/30 03:23:35;;;;;;;9.70;6.20;;;12.10;99.90;;;;;;5015663;28;20053;-61
2023/08/30 03:26:11;;;;;;;11.68;5.90;;;12.20;99.90;;;;;;5020641;28;20128;-62
2023/08/30 03:28:37;;;;;;;12.30;6.50;;;12.20;99.90;;;;;;5019850;28;20037;-62
2023/08/30 03:31:14;;;;;;;11.13;5.88;;;12.20;99.90;;;;;;5018044;28;20536;-62
2023/08/30 03:33:41;;;;;;;;;;;12.20;99.90;;;;;;5010199;28;20053;-62
2023/08/30 03:36:09;;;;;;;12.07;5.90;;;12.20;99.90;;;;;;5017295;28;19917;-61
2023/08/30 03:38:34;;;;;;;13.43;6.47;;;12.20;99.90;;;;;;5022629;28;20084;-61
2023/08/30 03:41:00;;;;;;;;;;;12.30;99.90;;;;;;5019692;28;20073;-61
2023/08/30 03:43:25;;;;;;;10.48;6.65;;;12.30;99.90;;;;;;5023774;28;20352;-61
2023/08/30 03:45:52;;;;;;;;;;;12.30;99.90;;;;;;5021521;28;20045;-61
2023/08/30 03:48:18;;;;;;;9.43;5.40;;;12.30;99.90;;;;;;5014927;28;19933;-61
2023/08/30 03:50:43;;;;;;;7.57;5.72;;;12.20;99.90;;;;;;5023876;28;20033;-62
2023/08/30 03:53:09;;;;;;;;;;;12.20;99.90;;;;;;5024192;28;20079;-62
2023/08/30 03:55:34;;;;;;;9.35;5.60;;;12.10;99.90;;;;;;5021506;28;19919;-62
2023/08/30 03:58:00;;;;;;;;;;;12.00;99.90;;;;;;5028254;28;20132;-62
2023/08/30 04:00:25;;;;;;;8.98;5.88;;;12.10;99.90;;;;;;5026182;28;19920;-62
2023/08/30 04:02:51;;;;;;;;;;;12.00;99.90;;;;;;5021502;28;20454;-62
2023/08/30 04:05:17;;;;;;;11.95;5.72;;;12.00;99.90;;;;;;5014724;28;19913;-61
2023/08/30 04:07:42;;;;;;;;;;;12.00;99.90;;;;;;5023314;28;20147;-61
2023/08/30 04:10:08;;;;;;;14.48;7.47;;;12.00;99.90;;;;;;5018770;28;19924;-61
2023/08/30 04:12:35;;;;;;;11.95;7.82;;;12.00;99.90;;;;;;5026656;28;20041;-60
2023/08/30 04:15:04;;;;;;;12.45;7.55;;;12.10;99.90;;;;;;5026986;28;20092;-60
2023/08/30 04:17:30;;;;;;;10.40;7.25;;;12.10;99.90;;;;;;5027501;28;20041;-59
2023/08/30 04:19:55;;;;;;;;;;;12.10;99.90;;;;;;5027011;28;20048;-60
2023/08/30 04:22:21;;;;;;;13.98;8.32;;;12.10;99.90;;;;;;5017383;28;19917;-60
2023/08/30 04:24:47;;;;;;;;;;;12.10;99.90;;;;;;5018062;28;20100;-60
2023/08/30 04:27:12;;;;;;;12.30;8.88;;;12.10;99.90;;;;;;5026389;28;20408;-60
2023/08/30 04:29:38;;;;;;;;;;;12.10;99.90;;;;;;5017267;28;20145;-60
2023/08/30 04:32:04;;;;;;;20.98;10.68;;;12.00;99.90;;;;;;5024899;28;20055;-60
2023/08/30 04:34:30;;;;;;;;;;;12.00;99.90;;;;;;5035790;28;20447;-60
2023/08/30 04:36:56;;;;;;;13.57;10.25;;;11.90;99.90;;;;;;5026832;28;19920;-59
2023/08/30 04:39:21;;;;;;;;;;;11.90;99.90;;;;;;5026754;28;20439;-59
2023/08/30 04:41:47;;;;;;;14.60;8.52;;;12.00;99.90;;;;;;5023749;28;19921;-59
2023/08/30 04:44:12;;;;;;;;;;;11.90;99.90;;;;;;5025164;28;20141;-60
2023/08/30 04:46:38;;;;;;;15.48;7.95;;;11.80;99.90;;;;;;5030676;28;19927;-60
2023/08/30 04:49:04;;;;;;;;;;;11.80;99.90;;;;;;5026977;28;20083;-59
2023/08/30 04:51:29;;;;;;;11.52;8.23;;;11.70;99.90;;;;;;5035054;28;20407;-56
2023/08/30 04:53:55;;;;;;;14.18;9.43;;;11.70;99.90;;;;;;5027054;28;20040;-60
2023/08/30 04:56:21;;;;;;;;;;;11.70;99.90;;;;;;5027587;28;20044;-60
2023/08/30 04:58:46;;;;;;;12.30;8.20;;;11.70;99.90;;;;;;5026691;28;19921;-60
2023/08/30 05:01:13;;;;;;;;;;;11.70;99.90;;;;;;5023306;28;20032;-61
2023/08/30 05:03:39;;;;;;;15.43;8.07;;;11.70;99.90;;;;;;5026407;28;19982;-61
2023/08/30 05:06:05;;;;;;;12.57;8.27;;;11.80;99.90;;;;;;5026254;28;20042;-63
2023/08/30 05:08:31;;;;;;;;;;;11.70;99.90;;;;;;5027026;28;20029;-62
2023/08/30 05:10:56;;;;;;;12.63;7.43;;;11.70;99.90;;;;;;5025436;28;19917;-61
2023/08/30 05:13:22;;;;;;;;;;;11.70;99.90;;;;;;5021430;28;20051;-62
2023/08/30 05:15:48;;;;;;;14.45;7.72;;;11.70;99.90;;;;;;5026155;28;19920;-65
2023/08/30 05:18:13;;;;;;;;;;;11.70;99.90;;;;;;5023754;28;20069;-64
2023/08/30 05:20:39;;;;;;;17.65;8.70;;;11.70;99.90;;;;;;5019809;28;19917;-63
2023/08/30 05:23:04;;;;;;;;;;;11.80;99.90;;;;;;5022703;28;20753;-64
2023/08/30 05:25:30;;;;;;;15.50;8.70;;;11.80;99.90;;;;;;5025092;28;19953;-62
2023/08/30 05:27:55;;;;;;;;;;;11.90;99.90;;;;;;5024677;28;21979;-64
2023/08/30 05:30:21;;;;;;;18.05;9.70;;;11.90;99.90;;;;;;5023873;28;19917;-64
2023/08/30 05:32:46;;;;;;;14.10;9.30;;;12.00;99.90;;;;;;5022657;28;20744;-64
2023/08/30 05:35:12;;;;;;;;;;;12.00;99.90;;;;;;5026217;28;20029;-64
2023/08/30 05:37:38;;;;;;;13.45;8.68;;;12.10;99.90;;;;;;5024367;28;19925;-63
2023/08/30 05:40:04;;;;;;;;;;;12.10;99.90;;;;;;5020597;28;20091;-63
2023/08/30 05:42:29;;;;;;;12.38;8.48;;;12.00;99.90;;;;;;5025160;28;19921;-62
2023/08/30 05:44:55;;;;;;;;;;;12.00;99.90;;;;;;5024208;28;20036;-62
2023/08/30 05:47:21;;;;;;;11.77;8.20;;;12.10;99.90;;;;;;5024906;28;19921;-62
2023/08/30 05:49:46;;;;;;;;;;;12.10;99.90;;;;;;5025793;28;20068;-63
2023/08/30 05:52:12;;;;;;;14.63;8.00;;;12.10;99.90;;;;;;5024623;28;19972;-64
2023/08/30 05:54:38;;;;;;;;;;;12.10;99.90;;;;;;5026381;28;20103;-63
2023/08/30 05:57:03;;;;;;;14.10;9.45;;;12.20;99.90;;;;;;5025557;28;19979;-62
2023/08/30 05:59:29;;;;;;;16.48;10.35;;;12.20;99.90;;;;;;5024855;28;20421;-60
2023/08/30 06:01:55;;;;;;;19.27;10.63;;;12.20;99.90;;;;;;5023836;28;20030;-63
2023/08/30 06:04:20;;;;;;;15.82;10.63;;;12.20;99.90;;;;;;5024797;28;20189;-63
2023/08/30 06:06:46;;;;;;;;;;;12.30;99.90;;;;;;5022843;28;20497;-61
2023/08/30 06:09:12;;;;;;;13.60;8.35;;;12.40;99.90;;;;;;5023866;28;19924;-59
2023/08/30 06:11:38;;;;;;;13.63;9.02;;;12.40;99.90;;;;;;5012882;28;20037;-61
2023/08/30 06:14:04;;;;;;;;;;;12.50;99.90;;;;;;5022208;28;20562;-61
2023/08/30 06:16:30;;;;;;;14.60;8.65;;;12.60;99.90;;;;;;5021706;28;19921;-61
2023/08/30 06:18:55;;;;;;;;;;;12.80;99.90;;;;;;5022434;28;20045;-60
2023/08/30 06:21:21;;;;;;;13.48;8.80;;;12.90;99.90;;;;;;5022872;28;19928;-61
2023/08/30 06:23:46;;;;;;;;;;;13.00;99.90;;;;;;5025023;28;20029;-61
2023/08/30 06:26:12;;;;;;;16.13;9.48;;;13.00;99.90;;;;;;5023888;28;19947;-60
2023/08/30 06:28:37;;;;;;;;;;;13.00;99.90;;;;;;5022313;28;20449;-57
2023/08/30 06:31:03;;;;;;;15.13;9.55;;;13.00;99.90;;;;;;5022879;28;19917;-58
2023/08/30 06:33:29;;;;;;;;;;;13.10;99.90;;;;;;5024255;28;20409;-57
2023/08/30 06:35:56;;;;;;;12.20;8.35;;;13.20;99.90;;;;;;5024194;28;19921;-57
2023/08/30 06:38:22;;;;;;;16.40;8.18;;;13.20;99.90;;;;;;5020356;28;20045;-60
2023/08/30 06:40:47;;;;;;;;;;;13.20;99.90;;;;;;5022804;28;20033;-60
2023/08/30 06:43:13;;;;;;;12.35;8.05;;;13.30;99.90;;;;;;5023384;28;19924;-60
2023/08/30 06:45:39;;;;;;;;;;;13.30;99.90;;;;;;5023613;28;20030;-60
2023/08/30 06:48:07;;;;;;;11.77;8.02;;;13.30;99.90;;;;;;5027103;28;19913;-60
2023/08/30 06:50:33;;;;;;;15.88;8.55;;;13.40;99.90;;;;;;5021543;28;20103;-61
2023/08/30 06:52:59;;;;;;;;;;;13.50;99.90;;;;;;5023711;28;20038;-60
2023/08/30 06:55:24;;;;;;;14.02;7.70;;;13.50;99.90;;;;;;5017572;28;20499;-61
2023/08/30 06:57:50;;;;;;;15.45;9.15;;;13.60;99.90;;;;;;5023960;28;20037;-61
2023/08/30 07:00:16;;;;;;;;;;;13.70;99.90;;;;;;5023232;28;20529;-61
2023/08/30 07:02:45;;;;;;;16.67;10.75;;;13.80;99.90;;;;;;5022364;28;19913;-60
2023/08/30 07:05:11;;;;;;;11.60;8.65;;;13.70;99.90;;;;;;5024190;28;20040;-60
2023/08/30 07:07:37;;;;;;;14.20;9.15;;;13.70;99.90;;;;;;5023672;28;20537;-60
2023/08/30 07:10:02;;;;;;;;;;;13.60;99.90;;;;;;5024729;28;20108;-60
2023/08/30 07:12:28;;;;;;;10.98;7.65;;;13.50;99.90;;;;;;5022455;28;19974;-59
2023/08/30 07:14:54;;;;;;;;;;;13.50;99.90;;;;;;5024496;28;20057;-59
2023/08/30 07:17:20;;;;;;;17.05;7.75;;;13.50;99.90;;;;;;5024062;28;19956;-60
2023/08/30 07:19:45;;;;;;;;;;;13.50;99.90;;;;;;5022328;28;20034;-60
2023/08/30 07:22:11;;;;;;;18.35;10.00;;;13.50;99.90;;;;;;5023488;28;19952;-61
2023/08/30 07:24:36;;;;;;;;;;;13.50;99.90;;;;;;5023550;28;20722;-62
2023/08/30 07:27:03;;;;;;;18.20;9.35;;;13.50;99.90;;;;;;5022679;28;19975;-60
2023/08/30 07:29:28;;;;;;;12.90;9.73;;;13.50;99.90;;;;;;5024902;28;20068;-60
2023/08/30 07:31:54;;;;;;;;;;;13.40;99.90;;;;;;5028013;28;20053;-59
2023/08/30 07:34:20;;;;;;;17.20;10.85;;;13.50;99.90;;;;;;5026966;28;20404;-60
2023/08/30 07:36:46;;;;;;;;;;;13.50;99.90;;;;;;5026440;28;20056;-60
2023/08/30 07:39:12;;;;;;;23.50;13.70;;;13.40;99.90;;;;;;5024484;28;20003;-60
2023/08/30 07:41:38;;;;;;;24.75;15.27;;;13.50;99.90;;;;;;5025750;28;20041;-60
2023/08/30 07:44:03;;;;;;;;;;;13.60;99.90;;;;;;5024875;28;20664;-56
2023/08/30 07:46:29;;;;;;;27.63;18.60;;;13.60;99.90;;;;;;5027391;28;20339;-59
2023/08/30 07:48:55;;;;;;;27.67;18.25;;;13.70;99.90;;;;;;5025998;28;20061;-63
2023/08/30 07:51:21;;;;;;;;;;;13.80;99.90;;;;;;5027210;28;20064;-63
2023/08/30 07:53:46;;;;;;;29.83;19.13;;;13.90;99.90;;;;;;5026195;28;19961;-61
2023/08/30 07:56:12;;;;;;;28.08;20.55;;;13.90;99.90;;;;;;5025664;28;20390;-61
2023/08/30 07:58:40;;;;;;;25.02;17.65;;;13.90;99.90;;;;;;5023783;28;20026;-61
2023/08/30 08:01:06;;;;;;;25.88;17.08;;;14.00;99.90;;;;;;5016865;28;20712;-61
2023/08/30 08:03:31;;;;;;;;;;;14.10;99.90;;;;;;5022511;28;20032;-61
2023/08/30 08:05:59;;;;;;;26.50;13.98;;;14.20;99.90;;;;;;5026340;28;19932;-59
2023/08/30 08:08:24;;;;;;;25.88;16.15;;;14.40;99.90;;;;;;5024610;28;20057;-60
2023/08/30 08:10:50;;;;;;;;;;;14.40;99.90;;;;;;5025282;28;20667;-58
2023/08/30 08:13:15;;;;;;;23.00;16.17;;;14.40;99.90;;;;;;5026440;28;20044;-58
2023/08/30 08:15:41;;;;;;;;;;;14.40;99.90;;;;;;5027732;28;20091;-61
2023/08/30 08:18:07;;;;;;;26.90;15.13;;;14.30;99.90;;;;;;5040539;28;20362;-60
2023/08/30 08:20:33;;;;;;;;;;;14.20;99.90;;;;;;5026196;28;20710;-59
2023/08/30 08:22:58;;;;;;;17.02;11.82;;;14.40;99.90;;;;;;5033662;28;19921;-59
2023/08/30 08:25:24;;;;;;;21.85;12.65;;;14.80;99.90;;;;;;5031938;28;20544;-60
2023/08/30 08:27:50;;;;;;;19.33;11.77;;;15.60;99.90;;;;;;5024510;28;20037;-62
2023/08/30 08:30:16;;;;;;;16.52;11.50;;;16.40;99.90;;;;;;5018150;28;20110;-60
2023/08/30 08:32:42;;;;;;;;;;;17.20;99.90;;;;;;5003571;28;20133;-59
2023/08/30 08:35:08;;;;;;;12.52;9.52;;;17.70;99.90;;;;;;5006431;28;19917;-60
2023/08/30 08:37:34;;;;;;;;;;;17.90;99.90;;;;;;5003365;28;20050;-60
2023/08/30 08:40:03;;;;;;;15.57;9.88;;;17.80;99.90;;;;;;5004097;28;19927;-60
2023/08/30 08:42:29;;;;;;;19.40;9.15;;;17.90;99.90;;;;;;5000496;28;20042;-60
2023/08/30 08:44:56;;;;;;;;;;;17.70;99.90;;;;;;4997883;28;20044;-61
2023/08/30 08:47:22;;;;;;;15.43;10.23;;;17.20;99.90;;;;;;5002950;28;19925;-59
2023/08/30 08:49:49;;;;;;;14.40;8.80;;;16.70;99.90;;;;;;5004894;28;20046;-60
2023/08/30 08:52:15;;;;;;;11.25;8.45;;;16.50;99.90;;;;;;4996614;28;20035;-61
2023/08/30 08:54:41;;;;;;;10.95;7.78;;;16.40;99.90;;;;;;4996530;28;20159;-62
2023/08/30 08:57:07;;;;;;;;;;;16.40;99.90;;;;;;4992183;28;20128;-60
2023/08/30 08:59:33;;;;;;;12.18;8.82;;;16.30;99.90;;;;;;4993432;28;20352;-61
2023/08/30 09:02:01;;;;;;;;;;;16.30;99.90;;;;;;4993837;28;20045;-60
2023/08/30 09:04:30;;;;;;;16.38;9.30;;;16.40;99.90;;;;;;5005608;28;19987;-61
2023/08/30 09:06:57;;;;;;;18.23;8.90;;;16.40;99.90;;;;;;5002719;28;20050;-60
2023/08/30 09:09:24;;;;;;;10.55;8.38;;;16.50;99.90;;;;;;5004794;28;20052;-61
2023/08/30 09:11:49;;;;;;;15.85;9.77;;;16.60;99.90;;;;;;5004207;28;20486;-60
2023/08/30 09:14:15;;;;;;;;;;;16.60;99.90;;;;;;5005815;28;20033;-61
2023/08/30 09:16:40;;;;;;;14.48;10.38;;;16.70;99.90;;;;;;5012897;28;19917;-61
2023/08/30 09:19:07;;;;;;;;;;;16.70;99.90;;;;;;5005089;28;20076;-61
2023/08/30 09:21:33;;;;;;;16.40;11.95;;;16.80;99.90;;;;;;5002134;28;20459;-61
2023/08/30 09:24:02;;;;;;;;;;;16.90;99.90;;;;;;5001303;28;20041;-59
2023/08/30 09:26:31;;;;;;;13.77;9.65;;;16.90;99.90;;;;;;5003081;28;19925;-59
2023/08/30 09:29:04;;;;;;;15.40;10.88;;;16.70;99.90;;;;;;4996503;28;20135;-58
2023/08/30 09:31:38;;;;;;;12.52;9.10;;;16.50;99.90;;;;;;4998157;28;20549;-60
2023/08/30 09:34:04;;;;;;;17.67;9.65;;;16.40;99.90;;;;;;5000327;28;20041;-60
2023/08/30 09:36:37;;;;;;;15.35;9.30;;;16.30;99.90;;;;;;4996689;28;20427;-60
2023/08/30 09:39:09;;;;;;;13.38;9.85;;;16.30;99.90;;;;;;5002600;28;20046;-60
2023/08/30 09:41:36;;;;;;;16.90;10.52;;;16.30;99.90;;;;;;5002794;28;20038;-60
2023/08/30 09:44:14;;;;;;;15.30;10.75;;;16.10;99.90;;;;;;5002434;28;20052;-60
2023/08/30 09:46:47;;;;;;;15.25;10.05;;;16.00;99.90;;;;;;5004794;28;20041;-60
2023/08/30 09:49:13;;;;;;;11.50;8.00;;;16.00;99.90;;;;;;4998088;28;20074;-60
2023/08/30 09:51:42;;;;;;;;;;;16.40;99.90;;;;;;5004359;28;20072;-60
2023/08/30 09:54:15;;;;;;;10.02;6.28;;;16.60;99.90;;;;;;4992678;28;19960;-59
2023/08/30 09:56:43;;;;;;;10.77;6.50;;;16.70;99.90;;;;;;5001426;28;20063;-58
2023/08/30 09:59:14;;;;;;;8.43;6.20;;;16.90;99.90;;;;;;4996816;28;20049;-57
2023/08/30 10:01:41;;;;;;;12.27;5.70;;;17.00;99.90;;;;;;5011278;28;20045;-56
2023/08/30 10:04:11;;;;;;;12.60;5.65;;;17.20;99.90;;;;;;5021322;28;20041;-58
2023/08/30 10:06:40;;;;;;;10.35;5.53;;;17.10;99.90;;;;;;5022167;28;20049;-60
2023/08/30 10:09:07;;;;;;;11.75;6.50;;;17.20;99.90;;;;;;5015989;28;20140;-61
2023/08/30 10:11:38;;;;;;;12.30;7.43;;;17.10;99.90;;;;;;5009159;28;20045;-61
2023/08/30 10:14:04;;;;;;;12.07;6.93;;;16.80;99.90;;;;;;5018279;28;20104;-61
2023/08/30 10:16:37;;;;;;;11.00;6.75;;;16.60;99.90;;;;;;5009186;28;20084;-63
2023/08/30 10:19:10;;;;;;;10.93;5.93;;;16.50;99.90;;;;;;5016734;28;21382;-62
2023/08/30 10:21:37;;;;;;;9.57;5.78;;;16.40;99.90;;;;;;5019540;28;20455;-61
2023/08/30 10:24:05;;;;;;;8.75;5.93;;;16.30;99.90;;;;;;5014576;28;20046;-61
2023/08/30 10:26:32;;;;;;;11.10;6.28;;;16.20;99.90;;;;;;5018776;28;20048;-62
2023/08/30 10:28:59;;;;;;;9.85;5.78;;;16.10;99.90;;;;;;5024025;28;20049;-61
2023/08/30 10:31:26;;;;;;;10.20;6.50;;;16.10;99.90;;;;;;5010825;28;20069;-60
2023/08/30 10:33:56;;;;;;;8.02;5.32;;;16.10;99.90;;;;;;5007668;28;20054;-61
2023/08/30 10:36:28;;;;;;;9.30;6.15;;;16.20;99.90;;;;;;5011480;28;20041;-61
2023/08/30 10:38:54;;;;;;;14.95;5.28;;;16.20;99.90;;;;;;5004072;28;20061;-61
2023/08/30 10:41:26;;;;;;;8.50;5.00;;;16.10;99.90;;;;;;5010356;28;20029;-62
2023/08/30 10:43:54;;;;;;;7.50;4.78;;;16.10;99.90;;;;;;5005268;28;20076;-61
2023/08/30 10:46:34;;;;;;;9.98;4.78;;;16.00;99.90;;;;;;5009744;28;20216;-62
2023/08/30 10:49:16;;;;;;;6.72;4.63;;;16.10;99.90;;;;;;5002120;28;20437;-61
2023/08/30 10:51:41;;;;;;;6.93;4.82;;;16.20;99.90;;;;;;5002514;28;20046;-59
2023/08/30 10:54:15;;;;;;;;;;;16.40;99.90;;;;;;5003803;28;20053;-61
2023/08/30 10:57:01;;;;;;;11.23;4.63;;;16.30;99.90;;;;;;5004800;28;19917;-60
2023/08/30 10:59:29;;;;;;;6.03;3.90;;;16.30;99.90;;;;;;5003387;28;20048;-61
2023/08/30 11:01:58;;;;;;;8.02;4.00;;;16.20;99.90;;;;;;4999822;28;20049;-60
2023/08/30 11:04:24;;;;;;;10.65;4.38;;;16.10;99.90;;;;;;5004165;28;20128;-61
2023/08/30 11:06:51;;;;;;;8.93;3.72;;;16.10;99.90;;;;;;5002860;28;20129;-62
2023/08/30 11:09:22;;;;;;;10.70;4.50;;;16.20;99.90;;;;;;5003618;28;20570;-61
2023/08/30 11:11:50;;;;;;;10.20;4.28;;;16.20;99.90;;;;;;5002106;28;20486;-61
2023/08/30 11:14:17;;;;;;;8.32;3.47;;;16.20;99.90;;;;;;4998780;28;20073;-62
2023/08/30 11:16:44;;;;;;;7.53;4.07;;;16.20;99.90;;;;;;5003900;28;20323;-63
2023/08/30 11:19:11;;;;;;;7.72;4.15;;;16.20;99.90;;;;;;4985118;28;20081;-61
2023/08/30 11:21:39;;;;;;;7.68;3.55;;;16.20;99.90;;;;;;5004330;28;20128;-62
2023/08/30 11:24:06;;;;;;;7.50;4.25;;;16.20;99.90;;;;;;5002618;28;20041;-62
2023/08/30 11:26:32;;;;;;;5.65;3.13;;;16.40;99.90;;;;;;5001920;28;20097;-61
2023/08/30 11:29:03;;;;;;;;;;;16.60;99.90;;;;;;5002487;28;20038;-61
2023/08/30 11:31:29;;;;;;;7.03;3.53;;;16.70;99.90;;;;;;5001379;28;20377;-62
2023/08/30 11:33:58;;;;;;;;;;;16.70;99.90;;;;;;5003766;28;20044;-62
2023/08/30 11:36:27;;;;;;;6.05;3.35;;;16.90;99.90;;;;;;5003347;28;19921;-62
2023/08/30 11:38:53;;;;;;;5.60;3.05;;;16.90;99.90;;;;;;5001864;28;20053;-62
2023/08/30 11:41:25;;;;;;;6.30;3.40;;;16.90;99.90;;;;;;5003130;28;20501;-62
2023/08/30 11:43:51;;;;;;;6.53;3.85;;;16.90;99.90;;;;;;5002114;28;20405;-62
2023/08/30 11:46:18;;;;;;;4.35;3.13;;;16.90;99.90;;;;;;5004359;28;20041;-62
2023/08/30 11:48:45;;;;;;;4.97;2.72;;;17.00;99.90;;;;;;5003727;28;20052;-62
2023/08/30 11:51:11;;;;;;;5.10;3.00;;;17.10;99.90;;;;;;5004041;28;20092;-61
2023/08/30 11:53:38;;;;;;;4.93;3.10;;;17.10;99.90;;;;;;5003313;28;20092;-61
2023/08/30 11:56:08;;;;;;;8.43;3.00;;;17.30;99.90;;;;;;5000899;28;20076;-61
2023/08/30 11:58:37;;;;;;;4.20;2.47;;;17.30;99.90;;;;;;5001846;28;20037;-62
2023/08/30 12:01:04;;;;;;;4.43;2.78;;;17.50;99.90;;;;;;5006953;28;20040;-63
2023/08/30 12:03:31;;;;;;;5.22;2.55;;;17.60;99.90;;;;;;5018406;28;20042;-62
2023/08/30 12:05:57;;;;;;;6.63;2.47;;;17.60;99.90;;;;;;5019906;28;20065;-62
2023/08/30 12:08:28;;;;;;;4.82;2.60;;;17.50;99.90;;;;;;5030842;28;20041;-61
2023/08/30 12:10:54;;;;;;;4.28;2.70;;;17.40;99.90;;;;;;5021458;28;20041;-61
2023/08/30 12:13:24;;;;;;;8.27;2.95;;;17.40;99.90;;;;;;5036192;28;20438;-61
2023/08/30 12:15:51;;;;;;;16.65;2.95;;;17.30;99.90;;;;;;5033347;28;20558;-61
2023/08/30 12:18:20;;;;;;;6.07;2.97;;;17.30;99.90;;;;;;5026243;28;20034;-61
2023/08/30 12:20:56;;;;;;;10.43;3.13;;;17.40;99.90;;;;;;5026037;28;20500;-61
2023/08/30 12:23:29;;;;;;;5.00;2.70;;;17.30;99.90;;;;;;5017789;28;20045;-61
2023/08/30 12:26:03;;;;;;;7.63;2.92;;;17.30;99.90;;;;;;5025985;28;20075;-61
2023/08/30 12:28:31;;;;;;;5.60;2.67;;;17.20;99.90;;;;;;5026574;28;20049;-62
2023/08/30 12:30:57;;;;;;;4.95;2.85;;;17.20;99.90;;;;;;5021260;28;20584;-62
2023/08/30 12:33:26;;;;;;;10.55;3.03;;;17.20;99.90;;;;;;5022497;28;20081;-61
2023/08/30 12:35:52;;;;;;;5.97;2.55;;;17.10;99.90;;;;;;5026455;28;20037;-62
2023/08/30 12:38:18;;;;;;;4.63;2.53;;;17.20;99.90;;;;;;5025158;28;20057;-62
2023/08/30 12:40:47;;;;;;;;;;;17.20;99.90;;;;;;5025517;28;20072;-61
2023/08/30 12:43:14;;;;;;;10.35;2.65;;;17.20;99.90;;;;;;5020089;28;19924;-61
2023/08/30 12:45:43;;;;;;;5.45;2.92;;;17.10;99.90;;;;;;5025734;28;20116;-61
2023/08/30 12:48:10;;;;;;;5.20;2.70;;;17.10;99.90;;;;;;5024022;28;20034;-62
2023/08/30 12:50:38;;;;;;;4.38;2.83;;;17.00;99.90;;;;;;5021334;28;20041;-62
2023/08/30 12:53:05;;;;;;;4.15;2.75;;;16.90;99.90;;;;;;5007619;28;20038;-62
2023/08/30 12:55:30;;;;;;;6.22;2.70;;;16.90;99.90;;;;;;5019480;28;20044;-62
2023/08/30 12:57:57;;;;;;;;;;;17.00;99.90;;;;;;5025452;28;20037;-62
2023/08/30 13:00:23;;;;;;;7.72;2.85;;;16.90;99.90;;;;;;5016967;28;19963;-62
2023/08/30 13:02:49;;;;;;;5.18;3.13;;;16.90;99.90;;;;;;5018245;28;20050;-63